Time;durP1;ratioP1;P1;durP2;ratioP2;P2;SDS_P1;SDS_P2;PMS_P1;PMS_P2;Temp;Humidity;BMP_temperature;BMP_pressure;BME280_temperature;BME280_humidity;BME280_pressure;Samples;Min_cycle;Max_cycle;Signal;HPM_P1;HPM_P2
2024/04/10 00:02:08;;;;;;;19.63;4.53;;;;;;;9.14;72.88;101496.97;5317175;26;20016;-82
2024/04/10 00:04:33;;;;;;;23.08;4.13;;;;;;;9.11;72.53;101498.88;5315574;26;19998;-78
2024/04/10 00:07:02;;;;;;;18.38;4.53;;;;;;;9.12;72.76;101505.00;5315268;26;20016;-81
2024/04/10 00:09:27;;;;;;;13.40;4.28;;;;;;;9.10;73.49;101513.03;5315383;26;20134;-82
2024/04/10 00:11:56;;;;;;;13.65;4.15;;;;;;;9.03;73.46;101514.41;5315550;26;20001;-80
2024/04/10 00:14:21;;;;;;;13.93;4.03;;;;;;;9.05;72.96;101515.13;5315403;26;20116;-80
2024/04/10 00:16:52;;;;;;;19.63;4.45;;;;;;;9.11;73.00;101521.81;5315265;26;20008;-82
2024/04/10 00:19:18;;;;;;;14.90;4.28;;;;;;;9.13;72.87;101524.34;5319300;26;20001;-79
2024/04/10 00:21:47;;;;;;;13.38;4.70;;;;;;;9.15;72.76;101525.06;5319556;26;20317;-81
2024/04/10 00:24:13;;;;;;;16.45;4.28;;;;;;;9.23;72.18;101525.41;5318162;26;20006;-80
2024/04/10 00:26:41;;;;;;;20.33;4.40;;;;;;;9.19;72.78;101526.56;5316930;26;20027;-80
2024/04/10 00:29:07;;;;;;;15.85;4.00;;;;;;;9.20;72.62;101528.28;5317407;26;20009;-79
2024/04/10 00:31:35;;;;;;;21.05;4.60;;;;;;;9.22;71.98;101531.66;5316803;26;20010;-81
2024/04/10 00:34:04;;;;;;;15.55;4.20;;;;;;;9.24;72.32;101538.53;5317716;26;20012;-81
2024/04/10 00:36:32;;;;;;;21.17;4.15;;;;;;;9.23;72.37;101543.91;5321476;26;20001;-83
2024/04/10 00:38:58;;;;;;;16.92;4.78;;;;;;;9.20;72.01;101546.75;5317965;26;20454;-82
2024/04/10 00:41:26;;;;;;;14.75;5.65;;;;;;;9.21;72.10;101548.44;5323611;26;20005;-81
2024/04/10 00:43:52;;;;;;;13.00;4.18;;;;;;;9.22;72.11;101543.06;5317534;26;20017;-81
2024/04/10 00:46:22;;;;;;;15.00;4.38;;;;;;;9.15;72.55;101548.84;5317199;26;20097;-80
2024/04/10 00:48:49;;;;;;;14.43;4.03;;;;;;;9.04;73.21;101560.13;5317104;26;20001;-79
2024/04/10 00:51:24;;;;;;;12.77;4.30;;;;;;;9.07;72.79;101563.41;5323070;26;20012;-81
2024/04/10 00:53:50;;;;;;;15.23;4.15;;;;;;;9.05;72.83;101560.00;5319061;26;20081;-78
2024/04/10 00:56:19;;;;;;;16.40;4.13;;;;;;;8.95;73.28;101566.84;5319644;26;20001;-83
2024/04/10 00:58:46;;;;;;;19.73;4.38;;;;;;;8.90;73.56;101566.31;5321576;26;20010;-79
2024/04/10 01:01:16;;;;;;;18.17;4.55;;;;;;;8.82;73.87;101573.88;5323312;26;20221;-80
2024/04/10 01:03:41;;;;;;;14.32;4.07;;;;;;;8.74;74.18;101584.06;5306272;27;20002;-82
2024/04/10 01:06:11;;;;;;;17.35;4.38;;;;;;;8.66;74.38;101575.81;5316848;26;20012;-79
2024/04/10 01:08:39;;;;;;;19.15;5.18;;;;;;;8.56;75.13;101581.66;5315775;26;20002;-79
2024/04/10 01:11:10;;;;;;;18.40;4.30;;;;;;;8.45;75.50;101588.59;5316578;26;20006;-81
2024/04/10 01:13:36;;;;;;;14.38;5.15;;;;;;;8.42;75.26;101584.34;5317240;26;20005;-80
2024/04/10 01:16:05;;;;;;;22.77;5.13;;;;;;;8.42;75.42;101591.41;5317278;26;20016;-81
2024/04/10 01:18:31;;;;;;;18.73;4.47;;;;;;;8.41;75.32;101587.94;5316165;26;20004;-79
2024/04/10 01:20:59;;;;;;;14.88;4.60;;;;;;;8.33;75.87;101591.00;5320630;26;20002;-80
2024/04/10 01:23:30;;;;;;;19.27;5.40;;;;;;;8.28;76.25;101590.44;5336129;26;20467;-81
2024/04/10 01:25:59;;;;;;;14.00;3.88;;;;;;;8.27;76.11;101595.84;5324529;26;20005;-81
2024/04/10 01:28:24;;;;;;;20.27;4.28;;;;;;;8.20;76.40;101589.22;5315949;26;20002;-82
2024/04/10 01:30:52;;;;;;;16.75;4.50;;;;;;;8.16;76.90;101595.63;5321906;26;20002;-77
2024/04/10 01:33:18;;;;;;;10.50;3.72;;;;;;;8.15;77.05;101602.69;5319367;26;20009;-79
2024/04/10 01:35:47;;;;;;;18.13;4.63;;;;;;;8.14;77.10;101594.91;5321309;26;20008;-79
2024/04/10 01:38:12;;;;;;;14.73;3.90;;;;;;;8.05;77.47;101599.78;5321482;26;20337;-81
2024/04/10 01:40:43;;;;;;;18.00;4.07;;;;;;;8.06;77.43;101601.47;5322663;26;20005;-80
2024/04/10 01:43:09;;;;;;;14.07;4.35;;;;;;;8.00;77.74;101599.22;5317489;26;20008;-81
2024/04/10 01:45:38;;;;;;;18.35;4.10;;;;;;;8.01;77.56;101610.63;5317534;26;20014;-80
2024/04/10 01:48:04;;;;;;;15.88;3.88;;;;;;;8.02;77.57;101614.94;5316342;26;20056;-79
2024/04/10 01:50:33;;;;;;;15.43;4.30;;;;;;;7.99;77.55;101618.63;5317140;26;20389;-81
2024/04/10 01:52:58;;;;;;;16.33;4.55;;;;;;;7.95;77.57;101621.53;5315907;26;20336;-80
2024/04/10 01:55:27;;;;;;;17.85;4.05;;;;;;;7.91;78.15;101627.94;5317271;26;20013;-80
2024/04/10 01:57:55;;;;;;;15.73;3.90;;;;;;;7.87;78.38;101629.91;5315878;26;20002;-78
2024/04/10 02:00:25;;;;;;;16.35;5.38;;;;;;;7.87;78.31;101632.53;5317310;26;20460;-81
2024/04/10 02:02:51;;;;;;;18.40;4.50;;;;;;;7.81;78.84;101633.75;5321527;26;20016;-82
2024/04/10 02:05:19;;;;;;;15.25;4.30;;;;;;;7.78;78.69;101636.56;5314937;26;20010;-81
2024/04/10 02:07:45;;;;;;;16.75;4.22;;;;;;;7.80;78.87;101642.59;5315464;26;20468;-80
2024/04/10 02:10:13;;;;;;;16.63;4.30;;;;;;;7.75;79.05;101647.28;5317486;26;20016;-82
2024/04/10 02:12:39;;;;;;;20.85;4.15;;;;;;;7.73;79.33;101654.44;5316482;26;19998;-80
2024/04/10 02:15:10;;;;;;;10.68;3.63;;;;;;;7.71;79.27;101651.03;5316446;26;20016;-83
2024/04/10 02:17:36;;;;;;;23.45;4.55;;;;;;;7.66;79.66;101657.53;5320483;26;20041;-80
2024/04/10 02:20:05;;;;;;;16.52;5.35;;;;;;;7.63;79.90;101660.31;5325383;26;20002;-81
2024/04/10 02:22:31;;;;;;;14.70;4.95;;;;;;;7.63;80.07;101658.53;5316066;26;20042;-81
2024/04/10 02:24:59;;;;;;;18.90;4.40;;;;;;;7.58;79.81;101655.31;5314641;26;20002;-80
2024/04/10 02:27:25;;;;;;;16.85;4.53;;;;;;;7.51;80.50;101667.16;5315393;26;20012;-81
2024/04/10 02:29:53;;;;;;;17.17;4.43;;;;;;;7.44;80.36;101664.03;5313799;26;20002;-79
2024/04/10 02:32:22;;;;;;;12.88;4.70;;;;;;;7.45;80.41;101664.88;5312064;26;20013;-78
2024/04/10 02:34:50;;;;;;;15.55;4.05;;;;;;;7.46;80.76;101675.34;5312297;26;20025;-78
2024/04/10 02:37:15;;;;;;;15.63;4.20;;;;;;;7.40;80.85;101667.78;5313157;26;20001;-79
2024/04/10 02:39:44;;;;;;;16.83;4.57;;;;;;;7.34;80.86;101676.03;5312474;26;19998;-78
2024/04/10 02:42:09;;;;;;;21.88;3.85;;;;;;;7.26;81.64;101680.88;5312129;26;20322;-79
2024/04/10 02:44:38;;;;;;;19.23;4.45;;;;;;;7.28;81.35;101684.28;5313298;26;20046;-79
2024/04/10 02:47:03;;;;;;;14.13;4.40;;;;;;;7.21;81.71;101677.66;5304519;27;20028;-77
2024/04/10 02:49:34;;;;;;;13.40;4.35;;;;;;;7.16;81.62;101687.63;5312622;26;20017;-78
2024/04/10 02:52:00;;;;;;;16.40;4.68;;;;;;;7.16;81.74;101691.09;5311700;26;20016;-79
2024/04/10 02:54:28;;;;;;;16.85;4.38;;;;;;;7.17;81.69;101697.19;5311978;26;20021;-77
2024/04/10 02:56:55;;;;;;;18.38;5.20;;;;;;;7.13;82.16;101701.78;5312504;26;20488;-78
2024/04/10 02:59:23;;;;;;;22.63;4.85;;;;;;;7.13;81.96;101714.09;5320071;26;20005;-78
2024/04/10 03:03:07;;;;;;;15.77;4.45;;;;;;;7.04;82.21;101715.44;5592313;25;1186913;-79
2024/04/10 03:05:33;;;;;;;12.48;4.85;;;;;;;7.06;81.79;101726.75;5612289;25;20237;-80
2024/04/10 03:08:01;;;;;;;16.75;5.15;;;;;;;7.05;81.92;101718.03;5622541;25;20010;-80
2024/04/10 03:10:27;;;;;;;23.65;5.25;;;;;;;7.07;82.09;101726.66;5623186;25;19996;-80
2024/04/10 03:12:55;;;;;;;16.75;4.38;;;;;;;7.05;82.42;101725.91;5621082;25;19997;-80
2024/04/10 03:15:21;;;;;;;14.90;4.55;;;;;;;7.06;82.01;101735.50;5616645;25;19997;-79
2024/04/10 03:17:50;;;;;;;18.30;4.80;;;;;;;7.01;82.02;101734.91;5608865;25;20004;-81
2024/04/10 03:20:19;;;;;;;16.40;4.63;;;;;;;6.99;82.26;101736.75;5625569;25;20346;-83
2024/04/10 03:22:44;;;;;;;17.75;4.47;;;;;;;6.89;82.91;101740.00;5607669;25;20411;-82
2024/04/10 03:25:13;;;;;;;14.02;4.82;;;;;;;6.88;83.17;101756.72;5621266;25;19996;-81
2024/04/10 03:27:40;;;;;;;16.17;5.15;;;;;;;6.92;82.95;101753.84;5630097;25;19988;-84
2024/04/10 03:30:09;;;;;;;20.52;4.60;;;;;;;6.93;83.07;101759.94;5631973;25;20000;-80
2024/04/10 03:32:37;;;;;;;14.60;4.22;;;;;;;6.87;83.18;101763.72;5608295;25;20004;-81
2024/04/10 03:35:06;;;;;;;18.08;4.55;;;;;;;6.79;83.67;101766.78;5615991;25;20111;-82
2024/04/10 03:37:34;;;;;;;18.02;4.15;;;;;;;6.83;83.34;101770.09;5625995;25;20089;-79
2024/04/10 03:40:03;;;;;;;13.48;4.30;;;;;;;6.84;83.42;101772.66;5632003;25;19996;-80
2024/04/10 03:42:28;;;;;;;15.45;4.60;;;;;;;6.87;83.54;101769.00;5631195;25;20007;-82
2024/04/10 03:44:56;;;;;;;17.40;4.53;;;;;;;6.92;83.68;101776.63;5613785;25;20000;-82
2024/04/10 03:47:25;;;;;;;21.35;5.07;;;;;;;6.92;83.35;101776.63;5609977;25;19992;-81
2024/04/10 03:49:53;;;;;;;23.50;5.05;;;;;;;6.94;83.00;101780.06;5612943;25;19992;-80
2024/04/10 03:52:21;;;;;;;22.02;4.63;;;;;;;6.87;83.50;101784.78;5610177;25;20008;-85
2024/04/10 03:54:50;;;;;;;17.60;4.80;;;;;;;6.91;83.35;101788.94;5621833;25;20004;-81
2024/04/10 03:57:19;;;;;;;18.98;5.00;;;;;;;6.91;83.46;101791.59;5618159;25;20007;-81
2024/04/10 03:59:44;;;;;;;21.88;4.97;;;;;;;6.87;83.49;101794.47;5622750;25;20014;-80
2024/04/10 04:02:14;;;;;;;19.92;4.43;;;;;;;6.92;83.35;101811.72;5611786;25;19999;-82
2024/04/10 04:04:40;;;;;;;14.82;4.72;;;;;;;6.92;83.17;101811.72;5604308;25;20011;-84
2024/04/10 04:07:08;;;;;;;17.73;4.40;;;;;;;6.94;83.37;101816.91;5601410;25;20029;-83
2024/04/10 04:09:34;;;;;;;15.40;4.07;;;;;;;6.95;82.86;101818.59;5621752;25;20462;-80
2024/04/10 04:12:06;;;;;;;15.07;3.95;;;;;;;6.89;83.43;101825.03;5621268;25;20000;-79
2024/04/10 04:14:32;;;;;;;19.65;4.63;;;;;;;6.91;83.19;101833.69;5591722;25;20439;-80
2024/04/10 04:17:00;;;;;;;16.00;4.57;;;;;;;6.84;83.90;101837.59;5604294;25;20008;-79
2024/04/10 04:19:25;;;;;;;17.70;5.15;;;;;;;6.83;83.53;101836.75;5604673;25;19996;-79
2024/04/10 04:21:54;;;;;;;15.73;5.25;;;;;;;6.79;84.36;101851.00;5603744;25;20000;-80
2024/04/10 04:24:19;;;;;;;16.45;5.65;;;;;;;6.80;84.20;101851.84;5603967;25;20008;-79
2024/04/10 04:26:48;;;;;;;14.90;4.25;;;;;;;6.81;84.39;101856.16;5605193;25;20007;-80
2024/04/10 04:29:16;;;;;;;14.55;4.35;;;;;;;6.75;84.35;101859.97;5605230;25;20426;-79
2024/04/10 04:31:44;;;;;;;16.92;5.40;;;;;;;6.74;84.59;101862.66;5588023;25;20126;-79
2024/04/10 04:34:12;;;;;;;16.08;4.63;;;;;;;6.68;84.90;101871.72;5579585;25;20020;-78
2024/04/10 04:36:41;;;;;;;15.95;4.93;;;;;;;6.68;84.72;101876.13;5599254;25;20040;-79
2024/04/10 04:39:07;;;;;;;22.13;6.95;;;;;;;6.69;84.66;101875.19;5603218;25;19996;-79
2024/04/10 04:41:36;;;;;;;18.45;4.38;;;;;;;6.64;84.98;101882.47;5600013;25;20540;-80
2024/04/10 04:44:01;;;;;;;14.88;4.55;;;;;;;6.65;84.87;101886.81;5602639;25;20078;-80
2024/04/10 04:46:33;;;;;;;18.52;4.63;;;;;;;6.57;85.22;101893.31;5575417;25;20004;-77
2024/04/10 04:48:59;;;;;;;16.88;4.97;;;;;;;6.57;85.10;101898.59;5597454;25;20000;-81
2024/04/10 04:51:28;;;;;;;14.75;4.50;;;;;;;6.53;85.07;101899.66;5598680;25;19996;-79
2024/04/10 04:53:54;;;;;;;15.00;5.20;;;;;;;6.49;85.46;101899.88;5577295;25;20007;-79
2024/04/10 04:56:22;;;;;;;21.77;5.15;;;;;;;6.46;85.87;101906.13;5587135;25;20012;-78
2024/04/10 04:58:48;;;;;;;15.00;4.63;;;;;;;6.47;85.99;101907.84;5597228;25;20011;-80
2024/04/10 05:01:16;;;;;;;16.45;4.90;;;;;;;6.47;85.85;101918.34;5600347;25;19996;-79
2024/04/10 05:06:31;;;;;;;19.30;4.80;;;;;;;6.53;85.67;101917.22;5598355;25;20145;-78
2024/04/10 05:09:00;;;;;;;15.77;5.00;;;;;;;6.57;85.78;101924.03;5584290;25;20010;-80
2024/04/10 05:11:28;;;;;;;19.23;4.90;;;;;;;6.60;85.49;101934.38;5592906;25;20067;-77
2024/04/10 05:13:54;;;;;;;19.73;5.07;;;;;;;6.73;85.11;101939.88;5598670;25;20007;-77
2024/04/10 05:16:22;;;;;;;13.73;4.97;;;;;;;6.70;84.65;101942.69;5598675;25;20111;-80
2024/04/10 05:18:51;;;;;;;21.88;4.40;;;;;;;6.69;85.10;101948.84;5601267;25;20474;-79
2024/04/10 05:21:20;;;;;;;18.50;5.05;;;;;;;6.74;84.71;101962.63;5602115;25;19992;-79
2024/04/10 05:23:47;;;;;;;15.43;4.82;;;;;;;6.86;84.80;101964.66;5602499;25;20309;-80
2024/04/10 05:26:15;;;;;;;21.20;4.50;;;;;;;7.00;83.80;101964.78;5596781;25;19996;-79
2024/04/10 05:28:42;;;;;;;21.48;5.40;;;;;;;7.13;83.39;101964.16;5578286;25;20005;-80
2024/04/10 05:31:11;;;;;;;26.85;4.88;;;;;;;7.30;82.86;101967.63;5604932;25;20011;-80
2024/04/10 05:33:37;;;;;;;16.77;4.90;;;;;;;7.46;82.71;101969.47;5603030;25;20032;-80
2024/04/10 05:36:09;;;;;;;22.17;5.57;;;;;;;7.46;82.36;101980.88;5593175;25;20004;-79
2024/04/10 05:38:35;;;;;;;14.20;3.83;;;;;;;7.45;82.74;101981.78;5602742;25;20429;-80
2024/04/10 05:41:03;;;;;;;18.58;4.93;;;;;;;7.54;82.40;101980.44;5601758;25;20008;-79
2024/04/10 05:43:29;;;;;;;20.67;4.85;;;;;;;7.60;82.10;101991.50;5607740;25;20014;-79
2024/04/10 05:45:57;;;;;;;18.02;4.47;;;;;;;7.74;82.16;101998.69;5606963;25;20000;-79
2024/04/10 05:48:23;;;;;;;20.58;5.68;;;;;;;7.92;81.60;101996.00;5595332;25;19999;-78
2024/04/10 05:50:58;;;;;;;15.50;5.13;;;;;;;8.09;80.79;102004.69;5495302;25;20017;-78
2024/04/10 05:53:27;;;;;;;20.98;5.53;;;;;;;8.21;80.43;102002.28;5489056;26;19998;-78
2024/04/10 05:55:55;;;;;;;25.40;5.47;;;;;;;8.08;80.54;102016.16;5490485;26;20412;-77
2024/04/10 05:58:21;;;;;;;17.02;5.13;;;;;;;8.15;80.21;102014.03;5490169;26;19998;-80
2024/04/10 06:00:49;;;;;;;24.33;6.65;;;;;;;8.15;80.33;102018.47;5489385;26;20005;-79
2024/04/10 06:03:15;;;;;;;17.50;4.82;;;;;;;8.19;80.05;102017.34;5488675;26;19998;-79
2024/04/10 06:05:44;;;;;;;11.75;4.65;;;;;;;8.28;79.75;102022.97;5488009;26;20008;-78
2024/04/10 06:08:09;;;;;;;26.33;6.57;;;;;;;8.27;80.00;102025.69;5489436;26;20022;-80
2024/04/10 06:10:40;;;;;;;18.73;4.80;;;;;;;8.41;79.37;102027.59;5491285;26;20013;-79
2024/04/10 06:13:06;;;;;;;25.25;4.78;;;;;;;8.43;78.97;102028.34;5482425;26;19998;-78
2024/04/10 06:15:34;;;;;;;17.73;5.32;;;;;;;8.46;78.82;102031.69;5492751;26;20013;-79
2024/04/10 06:18:00;;;;;;;21.80;6.07;;;;;;;8.57;78.46;102031.94;5491520;26;20022;-77
2024/04/10 06:20:28;;;;;;;22.92;5.18;;;;;;;8.54;78.50;102037.38;5491440;26;20382;-79
2024/04/10 06:22:54;;;;;;;18.77;5.45;;;;;;;8.53;78.44;102043.59;5489295;26;19998;-77
2024/04/10 06:25:22;;;;;;;16.35;4.72;;;;;;;8.60;78.08;102047.56;5489020;26;20290;-78
2024/04/10 06:27:50;;;;;;;21.17;5.30;;;;;;;8.63;78.01;102054.47;5485089;26;20013;-78
2024/04/10 06:30:19;;;;;;;20.08;4.75;;;;;;;8.94;77.42;102056.22;5489386;26;20002;-80
2024/04/10 06:32:44;;;;;;;11.60;4.60;;;;;;;8.89;77.63;102063.56;5485179;26;19998;-80
2024/04/10 06:35:14;;;;;;;16.38;5.10;;;;;;;8.92;76.96;102066.00;5489456;26;20001;-79
2024/04/10 06:37:39;;;;;;;17.05;6.40;;;;;;;8.91;77.77;102072.22;5494715;26;20006;-80
2024/04/10 06:40:10;;;;;;;21.55;5.57;;;;;;;8.88;77.70;102072.41;5493941;26;20409;-82
2024/04/10 06:42:36;;;;;;;16.13;5.00;;;;;;;8.81;77.40;102086.91;5489907;26;20062;-79
2024/04/10 06:45:07;;;;;;;16.23;5.30;;;;;;;8.99;76.59;102093.78;5492470;26;20401;-77
2024/04/10 06:47:33;;;;;;;20.85;5.28;;;;;;;8.95;77.04;102105.44;5491085;26;20013;-81
2024/04/10 06:50:01;;;;;;;24.52;5.57;;;;;;;8.82;77.37;102100.00;5491867;26;20010;-81
2024/04/10 06:52:27;;;;;;;14.80;5.13;;;;;;;8.97;77.04;102108.00;5492416;26;20013;-81
2024/04/10 06:54:55;;;;;;;19.08;5.05;;;;;;;9.01;76.65;102113.00;5492276;26;20022;-79
2024/04/10 06:57:21;;;;;;;18.83;5.72;;;;;;;8.93;76.79;102107.34;5489584;26;20013;-79
2024/04/10 06:59:49;;;;;;;14.52;5.28;;;;;;;9.16;75.92;102113.09;5485614;26;20010;-78
2024/04/10 07:02:18;;;;;;;17.77;4.88;;;;;;;9.14;75.91;102117.59;5489608;26;20005;-79
2024/04/10 07:04:48;;;;;;;13.07;5.15;;;;;;;9.26;75.31;102120.38;5484011;26;20012;-80
2024/04/10 07:07:14;;;;;;;14.98;5.25;;;;;;;9.15;75.02;102121.94;5490093;26;20077;-79
2024/04/10 07:09:42;;;;;;;16.27;4.80;;;;;;;9.30;75.21;102116.63;5489387;26;20684;-79
2024/04/10 07:12:08;;;;;;;17.77;5.97;;;;;;;9.32;75.25;102125.31;5481075;26;20336;-81
2024/04/10 07:14:38;;;;;;;22.25;6.32;;;;;;;9.50;74.83;102127.81;5492281;26;20016;-78
2024/04/10 07:17:04;;;;;;;20.10;5.38;;;;;;;9.56;74.34;102116.91;5487509;26;19994;-78
2024/04/10 07:19:36;;;;;;;13.30;5.07;;;;;;;9.62;73.66;102119.16;5490278;26;20006;-80
2024/04/10 07:22:03;;;;;;;24.95;6.75;;;;;;;9.67;73.60;102126.81;5484364;26;19994;-80
2024/04/10 07:24:32;;;;;;;15.02;4.68;;;;;;;9.91;73.10;102127.13;5490114;26;20025;-80
2024/04/10 07:26:57;;;;;;;17.02;5.10;;;;;;;9.95;73.24;102136.56;5489687;26;20406;-80
2024/04/10 07:29:26;;;;;;;20.48;5.50;;;;;;;10.16;72.45;102145.00;5490137;26;20065;-79
2024/04/10 07:31:51;;;;;;;15.55;5.47;;;;;;;10.13;72.54;102149.56;5490597;26;19994;-80
2024/04/10 07:34:20;;;;;;;13.52;4.88;;;;;;;10.21;71.84;102149.06;5488658;26;19998;-78
2024/04/10 07:36:48;;;;;;;18.65;5.13;;;;;;;10.35;71.81;102153.53;5490559;26;20479;-81
2024/04/10 07:39:16;;;;;;;17.60;5.75;;;;;;;10.29;71.98;102164.50;5476080;26;20002;-80
2024/04/10 07:41:43;;;;;;;16.00;5.05;;;;;;;10.28;71.85;102173.41;5476498;26;20010;-80
2024/04/10 07:44:11;;;;;;;15.10;5.25;;;;;;;10.43;71.58;102172.44;5490033;26;20007;-80
2024/04/10 07:46:37;;;;;;;14.52;5.40;;;;;;;10.59;70.87;102173.19;5488590;26;20002;-77
2024/04/10 07:49:09;;;;;;;15.05;5.68;;;;;;;10.43;69.67;102180.38;5493414;26;20023;-77
2024/04/10 07:51:34;;;;;;;14.88;5.80;;;;;;;10.34;70.66;102179.16;5494288;26;20461;-77
2024/04/10 07:54:05;;;;;;;24.05;6.88;;;;;;;10.11;71.68;102183.16;5490990;26;19994;-77
2024/04/10 07:56:31;;;;;;;18.45;6.80;;;;;;;10.11;70.80;102184.97;5489359;26;20088;-77
2024/04/10 07:58:59;;;;;;;24.27;7.47;;;;;;;9.99;71.21;102194.47;5489285;26;19998;-79
2024/04/10 08:01:25;;;;;;;14.35;6.60;;;;;;;9.91;71.29;102194.13;5488861;26;20009;-78
2024/04/10 08:03:53;;;;;;;21.92;6.82;;;;;;;9.98;71.64;102197.22;5489319;26;20006;-79
2024/04/10 08:06:19;;;;;;;19.25;7.28;;;;;;;10.24;71.17;102199.19;5488798;26;20006;-78
2024/04/10 08:08:47;;;;;;;17.80;6.88;;;;;;;10.30;71.21;102200.59;5488869;26;20421;-79
2024/04/10 08:11:17;;;;;;;17.35;6.10;;;;;;;10.35;70.41;102203.81;5481504;26;20001;-79
2024/04/10 08:13:45;;;;;;;22.13;7.72;;;;;;;10.36;70.55;102209.03;5481635;26;20002;-77
2024/04/10 08:16:11;;;;;;;17.75;6.72;;;;;;;10.57;70.20;102206.84;5487929;26;20094;-80
2024/04/10 08:18:42;;;;;;;14.98;5.65;;;;;;;10.86;68.68;102206.81;5488592;26;20042;-79
2024/04/10 08:21:09;;;;;;;15.52;6.20;;;;;;;11.11;68.13;102206.94;5488428;26;20464;-79
2024/04/10 08:23:39;;;;;;;16.85;5.88;;;;;;;11.28;67.54;102203.19;5491257;26;20021;-80
2024/04/10 08:26:12;;;;;;;15.30;5.50;;;;;;;11.38;66.17;102209.63;5491179;26;20017;-78
2024/04/10 08:28:45;;;;;;;18.35;6.22;;;;;;;11.59;66.06;102212.63;5491756;26;20006;-82
2024/04/10 08:31:12;;;;;;;17.52;7.13;;;;;;;11.59;65.63;102220.59;5492074;26;20013;-79
2024/04/10 08:33:40;;;;;;;17.92;6.95;;;;;;;11.64;64.96;102220.28;5491306;26;20022;-80
2024/04/10 08:36:08;;;;;;;20.45;6.15;;;;;;;12.36;64.23;102221.56;5491258;26;19998;-81
2024/04/10 08:38:36;;;;;;;15.60;6.10;;;;;;;12.98;60.62;102214.59;5492070;26;20006;-78
2024/04/10 08:41:02;;;;;;;14.82;6.68;;;;;;;13.43;58.73;102221.03;5493155;26;19998;-81
2024/04/10 08:43:37;;;;;;;17.75;6.65;;;;;;;13.05;59.02;102216.69;5494015;26;20016;-80
2024/04/10 08:46:08;;;;;;;15.60;7.03;;;;;;;12.96;59.39;102219.19;5493831;26;20013;-79
2024/04/10 08:48:37;;;;;;;14.48;5.80;;;;;;;13.06;58.66;102223.69;5486060;26;20313;-81
2024/04/10 08:51:07;;;;;;;17.10;7.63;;;;;;;12.56;60.13;102230.81;5489139;26;20005;-81
2024/04/10 08:53:38;;;;;;;18.23;5.88;;;;;;;12.99;59.01;102225.13;5492112;26;20002;-80
2024/04/10 08:56:04;;;;;;;14.18;5.85;;;;;;;13.36;58.60;102214.50;5491648;26;20349;-81
2024/04/10 08:58:32;;;;;;;17.73;5.90;;;;;;;13.30;58.13;102225.56;5492778;26;20052;-81
2024/04/10 09:00:59;;;;;;;19.20;6.78;;;;;;;13.26;56.42;102218.75;5493439;26;19999;-81
2024/04/10 09:03:30;;;;;;;13.55;5.95;;;;;;;13.48;56.67;102226.00;5494151;26;20006;-81
2024/04/10 09:06:02;;;;;;;18.60;5.43;;;;;;;13.50;56.95;102232.09;5493556;26;20008;-81
2024/04/10 09:08:30;;;;;;;15.88;5.97;;;;;;;13.70;55.78;102234.09;5493102;26;20052;-81
2024/04/10 09:10:56;;;;;;;13.90;5.82;;;;;;;14.09;55.42;102245.34;5493255;26;20002;-81
2024/04/10 09:13:24;;;;;;;16.60;6.53;;;;;;;14.50;53.10;102228.84;5492861;26;20002;-81
2024/04/10 09:15:56;;;;;;;13.18;5.40;;;;;;;15.10;52.65;102238.28;5546870;20;20011;-78
2024/04/10 09:18:25;;;;;;;16.50;5.50;;;;;;;14.84;52.49;102240.38;5488614;26;19998;-79
2024/04/10 09:21:03;;;;;;;17.15;5.60;;;;;;;14.50;52.44;102239.50;5495532;26;20235;-78
2024/04/10 09:23:31;;;;;;;13.35;5.13;;;;;;;14.37;53.49;102238.75;5491889;26;19999;-80
2024/04/10 09:25:57;;;;;;;15.85;5.30;;;;;;;14.52;53.51;102250.06;5494443;26;20010;-78
2024/04/10 09:28:25;;;;;;;12.48;5.05;;;;;;;14.67;50.11;102251.50;5479445;26;20351;-79
2024/04/10 09:30:56;;;;;;;15.07;4.78;;;;;;;14.63;50.15;102250.91;5489136;26;20012;-78
2024/04/10 09:33:27;;;;;;;11.55;4.72;;;;;;;14.14;51.95;102241.38;5481524;26;20483;-78
2024/04/10 09:35:57;;;;;;;10.88;4.82;;;;;;;13.58;52.91;102251.84;5490008;26;20457;-80
2024/04/10 09:38:26;;;;;;;10.43;3.88;;;;;;;14.00;51.54;102257.53;5482116;26;20003;-79
2024/04/10 09:41:01;;;;;;;16.45;4.32;;;;;;;14.43;49.57;102254.25;5489820;26;20022;-80
2024/04/10 09:43:31;;;;;;;15.15;4.90;;;;;;;14.42;49.92;102268.56;5495365;26;20070;-79
2024/04/10 09:45:58;;;;;;;11.48;4.45;;;;;;;14.41;50.51;102258.84;5491713;26;19998;-78
2024/04/10 09:48:30;;;;;;;11.32;5.15;;;;;;;14.46;51.54;102256.66;5486055;26;19998;-79
2024/04/10 09:51:02;;;;;;;13.15;5.28;;;;;;;14.30;50.57;102269.50;5488674;26;20352;-82
2024/04/10 09:53:34;;;;;;;10.73;4.85;;;;;;;14.85;49.27;102260.72;5490581;26;19999;-78
2024/04/10 09:56:01;;;;;;;13.30;4.82;;;;;;;15.34;47.88;102259.44;5486574;26;20009;-80
2024/04/10 09:58:30;;;;;;;11.20;4.20;;;;;;;15.16;47.36;102267.09;5492535;26;20021;-78
2024/04/10 10:00:56;;;;;;;9.68;4.30;;;;;;;14.97;48.49;102258.91;5484373;26;20005;-79
2024/04/10 10:03:28;;;;;;;9.57;3.95;;;;;;;14.80;48.01;102265.56;5487868;26;20002;-79
2024/04/10 10:06:07;;;;;;;8.38;4.07;;;;;;;14.94;47.82;102266.28;5492848;26;20011;-79
2024/04/10 10:08:37;;;;;;;12.02;4.40;;;;;;;15.11;48.10;102271.97;5484253;26;20012;-79
2024/04/10 10:11:05;;;;;;;9.35;4.10;;;;;;;15.65;46.99;102268.47;5495776;26;19996;-81
2024/04/10 10:13:41;;;;;;;10.88;4.72;;;;;;;15.79;45.93;102269.13;5482000;26;19995;-79
2024/04/10 10:16:07;;;;;;;9.68;4.65;;;;;;;15.80;46.81;102271.66;5489780;26;20048;-79
2024/04/10 10:18:36;;;;;;;11.23;4.55;;;;;;;14.73;48.64;102282.16;5493969;26;20002;-81
2024/04/10 10:21:08;;;;;;;11.60;4.80;;;;;;;14.39;50.32;102284.75;5495366;26;19999;-78
2024/04/10 10:23:38;;;;;;;8.25;4.68;;;;;;;14.21;51.75;102288.84;5492737;26;20005;-79
2024/04/10 10:26:05;;;;;;;10.43;4.47;;;;;;;13.75;52.14;102286.97;5493057;26;19994;-78
2024/04/10 10:28:35;;;;;;;12.48;5.05;;;;;;;13.39;52.67;102286.03;5492263;26;20002;-79
2024/04/10 10:31:06;;;;;;;8.10;4.05;;;;;;;13.98;50.16;102286.09;5496619;26;20010;-78
2024/04/10 10:33:34;;;;;;;9.07;4.03;;;;;;;13.72;49.11;102289.88;5477743;26;20038;-80
2024/04/10 10:36:00;;;;;;;10.35;4.25;;;;;;;14.12;48.14;102293.91;5491138;26;20001;-79
2024/04/10 10:38:31;;;;;;;12.48;4.70;;;;;;;14.36;47.87;102290.31;5484418;26;19998;-79
2024/04/10 10:41:04;;;;;;;11.77;4.78;;;;;;;14.45;48.39;102289.59;5491459;26;19998;-79
2024/04/10 10:43:33;;;;;;;10.65;4.47;;;;;;;14.69;46.30;102291.34;5485470;26;20013;-79
2024/04/10 10:45:59;;;;;;;9.55;3.92;;;;;;;14.92;46.57;102290.41;5484741;26;20013;-79
2024/04/10 10:48:28;;;;;;;10.75;4.55;;;;;;;15.06;45.75;102279.50;5487120;26;20010;-79
2024/04/10 10:50:54;;;;;;;10.25;4.30;;;;;;;15.26;44.79;102283.19;5480908;26;19998;-79
2024/04/10 10:53:23;;;;;;;12.85;4.25;;;;;;;15.24;43.97;102286.97;5492994;26;20004;-79
2024/04/10 10:55:52;;;;;;;12.32;4.43;;;;;;;15.35;43.98;102287.78;5493401;26;19998;-80
2024/04/10 10:58:20;;;;;;;9.05;4.30;;;;;;;15.74;44.69;102287.38;5482914;26;20056;-79
2024/04/10 11:00:46;;;;;;;8.90;4.22;;;;;;;15.87;41.85;102280.88;5483259;26;20002;-80
2024/04/10 11:03:16;;;;;;;9.75;4.10;;;;;;;16.04;43.26;102279.47;5492248;26;20521;-80
2024/04/10 11:05:42;;;;;;;14.13;4.75;;;;;;;15.85;43.04;102271.28;5480083;26;20017;-80
2024/04/10 11:08:11;;;;;;;6.60;3.75;;;;;;;15.78;41.75;102286.97;5476676;26;20382;-77
2024/04/10 11:10:37;;;;;;;10.82;3.85;;;;;;;15.61;42.14;102284.81;5484573;26;19994;-79
2024/04/10 11:13:09;;;;;;;10.90;4.40;;;;;;;15.71;42.68;102274.25;5494246;26;20103;-79
2024/04/10 11:15:39;;;;;;;10.48;4.43;;;;;;;15.73;40.33;102277.66;5469918;26;20590;-80
2024/04/10 11:18:07;;;;;;;8.68;3.80;;;;;;;16.14;41.26;102282.19;5497667;26;20013;-80
2024/04/10 11:20:33;;;;;;;10.82;4.90;;;;;;;15.84;42.06;102282.94;5477863;26;19998;-79
2024/04/10 11:23:01;;;;;;;10.13;4.28;;;;;;;16.32;41.95;102279.78;5479100;26;20002;-80
2024/04/10 11:25:28;;;;;;;9.13;4.40;;;;;;;16.24;41.81;102283.09;5491185;26;20005;-81
2024/04/10 11:27:57;;;;;;;9.02;3.83;;;;;;;16.17;41.22;102288.13;5481595;26;19998;-78
2024/04/10 11:30:26;;;;;;;8.75;4.20;;;;;;;15.93;39.30;102290.19;5495071;26;19998;-80